createdAt,value
2023-02-15T00:02:01.256Z,17.23
2023-02-15T00:04:47.340Z,18.53
2023-02-15T00:07:19.383Z,18.67
2023-02-15T00:09:47.915Z,18.97
2023-02-15T00:12:15.155Z,20.30
2023-02-15T00:14:41.960Z,19.77
2023-02-15T00:17:08.909Z,20.43
2023-02-15T00:19:35.556Z,21.53
2023-02-15T00:22:02.267Z,22.13
2023-02-15T00:24:29.117Z,21.53
2023-02-15T00:26:55.803Z,22.20
2023-02-15T00:29:22.632Z,21.53
2023-02-15T00:31:49.576Z,21.63
2023-02-15T00:34:20.392Z,21.17
2023-02-15T00:36:47.651Z,21.97
2023-02-15T00:39:14.534Z,21.63
2023-02-15T00:41:41.629Z,23.07
2023-02-15T00:44:08.612Z,21.13
2023-02-15T00:46:36.128Z,22.97
2023-02-15T00:49:03.800Z,21.87
2023-02-15T00:51:32.202Z,21.83
2023-02-15T00:53:58.989Z,22.70
2023-02-15T00:56:25.692Z,23.27
2023-02-15T00:58:52.412Z,24.00
2023-02-15T01:01:21.176Z,22.43
2023-02-15T01:03:48.241Z,23.83
2023-02-15T01:06:16.368Z,23.80
2023-02-15T01:08:43.940Z,24.60
2023-02-15T01:11:13.477Z,24.17
2023-02-15T01:13:41.233Z,22.80
2023-02-15T01:16:08.729Z,22.33
2023-02-15T01:18:36.077Z,23.47
2023-02-15T01:21:10.982Z,21.57
2023-02-15T01:23:38.296Z,22.10
2023-02-15T01:26:05.002Z,22.53
2023-02-15T01:28:32.457Z,23.50
2023-02-15T01:31:00.260Z,20.07
2023-02-15T01:33:27.044Z,20.33
2023-02-15T01:36:00.202Z,20.63
2023-02-15T01:38:27.236Z,19.10
2023-02-15T01:40:55.149Z,19.87
2023-02-15T01:43:21.823Z,19.97
2023-02-15T01:45:50.882Z,18.47
2023-02-15T01:48:29.008Z,19.43
2023-02-15T01:51:03.110Z,18.93
2023-02-15T01:53:42.910Z,17.90
2023-02-15T01:56:12.541Z,19.47
2023-02-15T01:58:39.744Z,20.50
2023-02-15T02:01:09.164Z,20.63
2023-02-15T02:03:51.873Z,19.90
2023-02-15T02:06:19.030Z,19.40
2023-02-15T02:08:45.962Z,19.67
2023-02-15T02:11:14.768Z,21.47
2023-02-15T02:13:43.622Z,20.93
2023-02-15T02:16:15.500Z,22.30
2023-02-15T02:19:31.724Z,22.10
2023-02-15T02:22:04.215Z,21.97
2023-02-15T02:24:39.908Z,22.93
2023-02-15T02:27:12.535Z,21.27
2023-02-15T02:30:05.966Z,21.73
2023-02-15T02:32:32.536Z,21.50
2023-02-15T02:35:02.566Z,23.90
2023-02-15T02:37:52.782Z,20.70
2023-02-15T02:40:36.119Z,20.53
2023-02-15T02:43:39.329Z,21.27
2023-02-15T02:46:27.468Z,22.53
2023-02-15T02:48:54.871Z,23.63
2023-02-15T02:51:22.462Z,21.73
2023-02-15T02:53:58.186Z,23.23
2023-02-15T02:56:48.580Z,21.67
2023-02-15T02:59:30.632Z,22.50
2023-02-15T03:02:20.382Z,22.40
2023-02-15T03:04:58.933Z,22.20
2023-02-15T03:07:29.849Z,23.57
2023-02-15T03:09:59.769Z,22.27
2023-02-15T03:12:32.383Z,23.63
2023-02-15T03:15:15.680Z,23.40
2023-02-15T03:17:46.009Z,22.67
2023-02-15T03:20:21.347Z,23.80
2023-02-15T03:22:56.797Z,21.60
2023-02-15T03:25:33.553Z,22.27
2023-02-15T03:28:04.872Z,22.10
2023-02-15T03:30:33.573Z,22.90
2023-02-15T03:33:02.121Z,22.87
2023-02-15T03:35:38.341Z,23.87
2023-02-15T03:38:09.085Z,23.83
2023-02-15T03:40:57.649Z,23.23
2023-02-15T03:43:55.101Z,21.90
2023-02-15T03:46:37.401Z,22.20
2023-02-15T03:49:20.273Z,24.27
2023-02-15T03:51:50.949Z,23.73
2023-02-15T03:54:43.597Z,25.83
2023-02-15T03:57:34.830Z,23.33
2023-02-15T04:00:25.501Z,22.43
2023-02-15T04:03:02.730Z,23.47
2023-02-15T04:05:29.491Z,24.10
2023-02-15T04:07:56.181Z,24.93
2023-02-15T04:10:41.278Z,24.10
2023-02-15T04:13:07.981Z,23.73
2023-02-15T04:15:55.080Z,23.37
2023-02-15T04:18:21.760Z,23.30
2023-02-15T04:21:07.030Z,23.73
2023-02-15T04:23:52.260Z,23.13
2023-02-15T04:26:19.019Z,22.87
2023-02-15T04:28:45.773Z,22.27
2023-02-15T04:31:12.521Z,23.27
2023-02-15T04:33:39.299Z,24.37
2023-02-15T04:36:06.472Z,22.83
2023-02-15T04:38:33.155Z,22.07
2023-02-15T04:40:59.893Z,24.10
2023-02-15T04:43:26.596Z,23.40
2023-02-15T04:45:53.375Z,22.77
2023-02-15T04:48:20.201Z,24.30
2023-02-15T04:50:46.937Z,22.57
2023-02-15T04:53:13.713Z,24.23
2023-02-15T04:55:40.446Z,24.23
2023-02-15T04:58:07.155Z,24.73
2023-02-15T05:00:33.817Z,22.80
2023-02-15T05:03:01.129Z,24.30
2023-02-15T05:05:27.828Z,23.33
2023-02-15T05:07:54.584Z,24.43
2023-02-15T05:10:21.408Z,22.57
2023-02-15T05:12:48.297Z,23.97
2023-02-15T05:15:15.189Z,22.93
2023-02-15T05:17:41.984Z,23.00
2023-02-15T05:20:09.105Z,22.83
2023-02-15T05:22:35.798Z,23.00
2023-02-15T05:25:21.135Z,23.50
2023-02-15T05:28:06.321Z,22.07
2023-02-15T05:30:33.373Z,22.43
2023-02-15T05:33:00.250Z,22.73
2023-02-15T05:35:26.889Z,23.97
2023-02-15T05:37:53.671Z,22.13
2023-02-15T05:40:20.660Z,24.87
2023-02-15T05:42:47.368Z,23.63
2023-02-15T05:45:14.079Z,24.83
2023-02-15T05:47:40.738Z,25.43
2023-02-15T05:50:08.265Z,23.70
2023-02-15T05:52:35.877Z,26.40
2023-02-15T05:55:03.692Z,24.67
2023-02-15T05:57:30.390Z,25.57
2023-02-15T05:59:57.484Z,24.80
2023-02-15T06:02:24.505Z,26.80
2023-02-15T06:04:51.210Z,26.83
2023-02-15T06:07:17.878Z,26.03
2023-02-15T06:09:44.528Z,27.67
2023-02-15T06:12:11.239Z,26.37
2023-02-15T06:14:38.023Z,28.50
2023-02-15T06:17:04.717Z,26.13
2023-02-15T06:19:31.384Z,25.37
2023-02-15T06:21:58.083Z,28.80
2023-02-15T06:24:24.824Z,26.03
2023-02-15T06:26:51.729Z,27.13
2023-02-15T06:29:18.422Z,25.47
2023-02-15T06:31:45.239Z,28.77
2023-02-15T06:34:12.071Z,29.73
2023-02-15T06:36:39.058Z,30.80
2023-02-15T06:39:05.822Z,30.47
2023-02-15T06:41:32.452Z,32.30
2023-02-15T06:43:59.209Z,32.50
2023-02-15T06:46:25.990Z,33.43
2023-02-15T06:48:52.740Z,33.40
2023-02-15T06:51:19.508Z,33.00
2023-02-15T06:53:46.211Z,32.70
2023-02-15T06:56:13.048Z,34.70
2023-02-15T06:58:41.074Z,34.13
2023-02-15T07:01:08.425Z,33.03
2023-02-15T07:03:36.072Z,33.87
2023-02-15T07:06:07.106Z,34.60
2023-02-15T07:08:33.828Z,35.23
2023-02-15T07:11:20.439Z,36.03
2023-02-15T07:13:48.071Z,33.53
2023-02-15T07:16:14.877Z,34.83
2023-02-15T07:18:41.826Z,34.07
2023-02-15T07:21:09.070Z,31.77
2023-02-15T07:23:36.746Z,33.63
2023-02-15T07:26:03.702Z,34.20
2023-02-15T07:28:30.661Z,32.77
2023-02-15T07:30:58.626Z,30.77
2023-02-15T07:33:25.588Z,32.37
2023-02-15T07:35:55.139Z,32.83
2023-02-15T07:38:22.677Z,31.20
2023-02-15T07:40:49.341Z,32.23
2023-02-15T07:43:16.285Z,31.83
2023-02-15T07:45:43.254Z,30.03
2023-02-15T07:48:10.578Z,31.47
2023-02-15T07:50:37.372Z,31.60
2023-02-15T07:53:04.548Z,31.60
2023-02-15T07:55:31.365Z,32.20
2023-02-15T07:57:58.442Z,30.10
2023-02-15T08:00:30.976Z,32.53
2023-02-15T08:03:18.723Z,32.50
2023-02-15T08:05:46.397Z,32.03
2023-02-15T08:08:30.920Z,30.60
2023-02-15T08:11:23.395Z,30.27
2023-02-15T08:13:55.565Z,30.37
2023-02-15T08:16:27.828Z,30.13
2023-02-15T08:18:55.327Z,29.17
2023-02-15T08:21:24.832Z,29.97
2023-02-15T08:23:52.145Z,29.57
2023-02-15T08:26:19.357Z,28.30
2023-02-15T08:28:47.456Z,28.03
2023-02-15T08:31:15.127Z,28.80
2023-02-15T08:33:43.383Z,26.67
2023-02-15T08:36:18.316Z,26.97
2023-02-15T08:38:45.008Z,26.87
2023-02-15T08:41:15.784Z,25.53
2023-02-15T08:43:42.990Z,24.80
2023-02-15T08:46:13.010Z,23.57
2023-02-15T08:48:40.665Z,23.90
2023-02-15T08:51:16.469Z,24.13
2023-02-15T08:53:47.199Z,20.00
2023-02-15T08:56:13.938Z,20.43
2023-02-15T08:58:40.585Z,22.53
2023-02-15T09:01:18.998Z,19.57
2023-02-15T09:03:47.457Z,19.83
2023-02-15T09:06:15.051Z,17.53
2023-02-15T09:08:41.928Z,18.90
2023-02-15T09:11:11.677Z,17.20
2023-02-15T09:13:40.045Z,16.87
2023-02-15T09:16:10.418Z,15.57
2023-02-15T09:18:39.459Z,15.10
2023-02-15T09:21:18.480Z,13.80
2023-02-15T09:23:47.036Z,13.47
2023-02-15T09:26:20.014Z,14.23
2023-02-15T09:28:47.685Z,14.20
2023-02-15T09:31:16.819Z,13.73
2023-02-15T09:33:45.454Z,14.00
2023-02-15T09:36:21.585Z,13.67
2023-02-15T09:38:53.450Z,13.63
2023-02-15T09:41:40.852Z,13.00
2023-02-15T09:44:13.653Z,13.93
2023-02-15T09:46:46.471Z,12.27
2023-02-15T09:49:31.041Z,14.80
2023-02-15T09:52:00.634Z,12.87
2023-02-15T09:54:41.895Z,11.80
2023-02-15T09:57:33.659Z,12.53
2023-02-15T10:00:26.643Z,12.93
2023-02-15T10:03:14.325Z,12.70
2023-02-15T10:06:05.642Z,12.90
2023-02-15T10:08:50.422Z,11.67
2023-02-15T10:11:43.003Z,13.10
2023-02-15T10:14:38.834Z,12.17
2023-02-15T10:17:18.268Z,11.43
2023-02-15T10:20:09.868Z,12.27
2023-02-15T10:22:57.144Z,12.33
2023-02-15T10:26:03.126Z,12.50
2023-02-15T10:28:47.899Z,12.70
2023-02-15T10:31:43.482Z,11.70
2023-02-15T10:34:16.327Z,11.47
2023-02-15T10:37:18.252Z,11.13
2023-02-15T10:40:02.351Z,11.23
2023-02-15T10:42:57.008Z,12.53
2023-02-15T10:46:04.752Z,11.20
2023-02-15T10:49:03.874Z,11.70
2023-02-15T10:51:48.841Z,11.27
2023-02-15T10:54:43.107Z,11.73
2023-02-15T10:57:22.967Z,10.97
2023-02-15T10:59:57.160Z,10.77
2023-02-15T11:02:30.039Z,11.30
2023-02-15T11:05:19.585Z,11.30
2023-02-15T11:07:50.191Z,10.93
2023-02-15T11:10:31.376Z,10.90
2023-02-15T11:13:03.408Z,10.80
2023-02-15T11:15:36.514Z,11.10
2023-02-15T11:18:14.141Z,11.17
2023-02-15T11:20:56.808Z,11.50
2023-02-15T11:23:26.032Z,12.00
2023-02-15T11:26:03.548Z,11.67
2023-02-15T11:28:49.079Z,11.33
2023-02-15T11:31:26.364Z,10.73
2023-02-15T11:34:01.288Z,10.67
2023-02-15T11:36:38.921Z,11.40
2023-02-15T11:39:12.147Z,10.90
2023-02-15T11:41:43.506Z,11.17
2023-02-15T11:44:27.323Z,10.87
2023-02-15T11:46:54.266Z,11.57
2023-02-15T11:49:23.732Z,11.87
2023-02-15T11:51:51.948Z,10.63
2023-02-15T11:54:34.228Z,11.23
2023-02-15T11:57:13.420Z,12.20
2023-02-15T11:59:42.911Z,11.23
2023-02-15T12:02:26.605Z,11.53
2023-02-15T12:05:01.551Z,11.60
2023-02-15T12:07:49.630Z,11.10
2023-02-15T12:10:30.511Z,11.17
2023-02-15T12:13:13.955Z,11.23
2023-02-15T12:15:47.674Z,10.80
2023-02-15T12:18:38.253Z,11.77
2023-02-15T12:21:15.690Z,11.73
2023-02-15T12:23:55.770Z,11.57
2023-02-15T12:26:31.705Z,11.80
2023-02-15T12:29:24.632Z,12.20
2023-02-15T12:31:53.320Z,12.93
2023-02-15T12:34:40.638Z,12.87
2023-02-15T12:37:22.407Z,11.53
2023-02-15T12:39:58.492Z,11.87
2023-02-15T12:42:27.599Z,12.30
2023-02-15T12:44:56.199Z,11.97
2023-02-15T12:47:28.961Z,12.73
2023-02-15T12:50:27.037Z,11.63
2023-02-15T12:53:15.210Z,11.73
2023-02-15T12:55:57.060Z,12.20
2023-02-15T12:58:26.463Z,11.17
2023-02-15T13:01:25.592Z,11.60
2023-02-15T13:04:02.168Z,11.10
2023-02-15T13:06:31.857Z,11.17
2023-02-15T13:09:16.982Z,11.23
2023-02-15T13:11:45.734Z,12.00
2023-02-15T13:14:27.595Z,11.83
2023-02-15T13:16:59.438Z,11.10
2023-02-15T13:19:37.134Z,12.07
2023-02-15T13:22:12.442Z,12.23
2023-02-15T13:24:51.513Z,11.80
2023-02-15T13:27:22.257Z,12.27
2023-02-15T13:29:59.540Z,12.07
2023-02-15T13:32:34.714Z,12.87
2023-02-15T13:35:06.129Z,12.47
2023-02-15T13:37:55.024Z,12.37
2023-02-15T13:40:42.946Z,11.10
2023-02-15T13:43:45.120Z,11.60
2023-02-15T13:46:23.873Z,12.37
2023-02-15T13:49:10.407Z,11.90
2023-02-15T13:51:37.084Z,12.23
2023-02-15T13:54:34.351Z,12.17
2023-02-15T13:57:22.608Z,12.90
2023-02-15T13:59:57.370Z,12.33
2023-02-15T14:03:10.815Z,12.57
2023-02-15T14:05:49.671Z,12.77
2023-02-15T14:08:40.771Z,12.13
2023-02-15T14:11:34.663Z,12.43
2023-02-15T14:14:41.661Z,13.33
2023-02-15T14:17:26.620Z,13.40
2023-02-15T14:20:07.213Z,12.53
2023-02-15T14:22:43.067Z,12.60
2023-02-15T14:25:53.315Z,13.47
2023-02-15T14:28:34.908Z,13.03
2023-02-15T14:31:06.642Z,13.63
2023-02-15T14:33:43.917Z,12.50
2023-02-15T14:36:17.937Z,12.30
2023-02-15T14:38:47.586Z,12.87
2023-02-15T14:41:33.261Z,13.20
2023-02-15T14:44:31.155Z,12.73
2023-02-15T14:47:03.826Z,11.90
2023-02-15T14:49:38.016Z,12.33
2023-02-15T14:52:11.710Z,12.73
2023-02-15T14:54:38.381Z,13.23
2023-02-15T14:57:07.353Z,12.90
2023-02-15T14:59:58.569Z,12.40
2023-02-15T15:02:46.372Z,13.27
2023-02-15T15:05:37.339Z,12.47
2023-02-15T15:08:06.316Z,12.67
2023-02-15T15:10:41.458Z,12.13
2023-02-15T15:13:33.361Z,13.17
2023-02-15T15:16:37.135Z,12.57
2023-02-15T15:19:07.362Z,12.47
2023-02-15T15:21:49.348Z,12.53
2023-02-15T15:24:38.001Z,12.20
2023-02-15T15:27:43.963Z,13.63
2023-02-15T15:30:30.916Z,12.23
2023-02-15T15:33:00.583Z,13.10
2023-02-15T15:35:27.256Z,12.93
2023-02-15T15:38:15.797Z,13.30
2023-02-15T15:40:51.529Z,12.97
2023-02-15T15:43:55.810Z,12.93
2023-02-15T15:46:53.317Z,12.17
2023-02-15T15:49:22.234Z,13.73
2023-02-15T15:51:50.336Z,13.83
2023-02-15T15:54:23.505Z,12.63
2023-02-15T15:57:03.481Z,13.47
2023-02-15T15:59:35.150Z,14.00
2023-02-15T16:02:06.989Z,12.83
2023-02-15T16:04:35.474Z,13.83
2023-02-15T16:07:17.486Z,14.07
2023-02-15T16:10:01.813Z,14.23
2023-02-15T16:12:31.404Z,13.60
2023-02-15T16:14:58.402Z,13.97
2023-02-15T16:17:32.794Z,13.90
2023-02-15T16:20:06.991Z,13.23
2023-02-15T16:22:34.681Z,14.37
2023-02-15T16:25:04.403Z,13.37
2023-02-15T16:27:43.039Z,14.00
2023-02-15T16:30:25.040Z,13.63
2023-02-15T16:33:03.991Z,14.07
2023-02-15T16:35:30.779Z,13.20
2023-02-15T16:37:57.892Z,13.90
2023-02-15T16:40:24.530Z,15.07
2023-02-15T16:42:53.510Z,14.97
2023-02-15T16:45:25.889Z,15.57
2023-02-15T16:47:56.531Z,15.43
2023-02-15T16:50:35.821Z,16.37
2023-02-15T16:53:04.811Z,14.80
2023-02-15T16:55:54.234Z,14.23
2023-02-15T16:58:28.336Z,13.50
2023-02-15T17:01:03.986Z,14.00
2023-02-15T17:03:31.470Z,12.77
2023-02-15T17:06:00.499Z,13.53
2023-02-15T17:08:33.332Z,14.93
2023-02-15T17:11:00.161Z,15.27
2023-02-15T17:13:28.806Z,13.50
2023-02-15T17:16:02.149Z,14.00
2023-02-15T17:18:44.918Z,12.80
2023-02-15T17:21:20.001Z,13.27
2023-02-15T17:23:51.228Z,13.87
2023-02-15T17:26:32.111Z,12.40
2023-02-15T17:29:13.935Z,13.00
2023-02-15T17:31:41.711Z,13.13
2023-02-15T17:34:46.392Z,14.50
2023-02-15T17:37:24.666Z,13.50
2023-02-15T17:39:51.775Z,13.77
2023-02-15T17:42:18.690Z,13.00
2023-02-15T17:44:45.451Z,12.60
2023-02-15T17:47:18.864Z,13.77
2023-02-15T17:49:46.444Z,14.47
2023-02-15T17:52:16.998Z,14.00
2023-02-15T17:55:02.814Z,13.63
2023-02-15T17:57:31.123Z,14.40
2023-02-15T18:00:16.838Z,14.57
2023-02-15T18:03:02.984Z,14.87
2023-02-15T18:05:48.330Z,14.37
2023-02-15T18:08:36.489Z,13.90
2023-02-15T18:11:22.765Z,14.37
2023-02-15T18:13:49.482Z,14.40
2023-02-15T18:16:22.978Z,15.07
2023-02-15T18:18:50.046Z,14.67
2023-02-15T18:21:16.817Z,14.63
2023-02-15T18:23:43.517Z,14.03
2023-02-15T18:26:15.657Z,14.50
2023-02-15T18:28:42.449Z,13.27
2023-02-15T18:31:10.239Z,13.27
2023-02-15T18:33:49.468Z,14.40
2023-02-15T18:36:28.162Z,13.23
2023-02-15T18:38:55.930Z,14.43
2023-02-15T18:41:23.746Z,16.40
2023-02-15T18:43:52.421Z,16.40
2023-02-15T18:46:19.607Z,14.53
2023-02-15T18:48:46.856Z,15.23
2023-02-15T18:51:21.545Z,14.20
2023-02-15T18:53:53.327Z,15.07
2023-02-15T18:56:22.592Z,14.10
2023-02-15T18:58:49.465Z,14.97
2023-02-15T19:01:21.652Z,15.97
2023-02-15T19:03:51.298Z,15.97
2023-02-15T19:06:21.190Z,16.97
2023-02-15T19:08:50.852Z,17.00
2023-02-15T19:11:23.571Z,16.20
2023-02-15T19:13:52.091Z,15.30
2023-02-15T19:16:37.839Z,15.00
2023-02-15T19:19:07.172Z,14.40
2023-02-15T19:21:34.209Z,14.63
2023-02-15T19:24:10.824Z,14.63
2023-02-15T19:26:45.560Z,16.13
2023-02-15T19:29:15.182Z,14.63
2023-02-15T19:31:42.553Z,17.00
2023-02-15T19:34:19.477Z,15.97
2023-02-15T19:36:49.018Z,16.10
2023-02-15T19:39:39.299Z,16.07
2023-02-15T19:42:15.586Z,15.77
2023-02-15T19:44:43.894Z,15.43
2023-02-15T19:47:14.180Z,15.77
2023-02-15T19:49:45.410Z,15.60
2023-02-15T19:52:18.628Z,16.93
2023-02-15T19:54:46.423Z,15.67
2023-02-15T19:57:13.927Z,16.40
2023-02-15T19:59:41.418Z,14.83
2023-02-15T20:02:14.820Z,14.77
2023-02-15T20:04:41.739Z,14.43
2023-02-15T20:07:19.630Z,14.87
2023-02-15T20:09:46.841Z,15.00
2023-02-15T20:12:25.810Z,15.17
2023-02-15T20:14:53.299Z,17.23
2023-02-15T20:17:20.246Z,16.73
2023-02-15T20:19:47.019Z,17.23
2023-02-15T20:22:23.278Z,19.70
2023-02-15T20:24:51.589Z,15.77
2023-02-15T20:27:20.008Z,17.53
2023-02-15T20:29:46.940Z,16.83
2023-02-15T20:32:13.820Z,18.37
2023-02-15T20:34:40.566Z,17.53
2023-02-15T20:37:20.653Z,17.70
2023-02-15T20:39:47.987Z,17.23
2023-02-15T20:42:19.265Z,17.57
2023-02-15T20:44:46.022Z,16.83
2023-02-15T20:47:13.574Z,18.27
2023-02-15T20:49:43.592Z,17.73
2023-02-15T20:52:20.872Z,17.57
2023-02-15T20:54:47.676Z,16.70
2023-02-15T20:57:14.839Z,16.17
2023-02-15T20:59:42.295Z,18.27
2023-02-15T21:02:17.307Z,18.37
2023-02-15T21:04:44.028Z,18.63
2023-02-15T21:07:16.833Z,18.67
2023-02-15T21:09:44.482Z,18.63
2023-02-15T21:12:19.928Z,19.13
2023-02-15T21:14:47.300Z,18.13
2023-02-15T21:17:16.184Z,16.90
2023-02-15T21:19:46.301Z,17.20
2023-02-15T21:22:15.836Z,18.00
2023-02-15T21:24:52.194Z,18.13
2023-02-15T21:27:19.155Z,18.13
2023-02-15T21:29:45.880Z,16.80
2023-02-15T21:32:12.760Z,17.23
2023-02-15T21:34:40.889Z,17.97
2023-02-15T21:37:27.610Z,17.83
2023-02-15T21:39:54.662Z,18.97
2023-02-15T21:42:39.636Z,17.13
2023-02-15T21:45:36.154Z,18.13
2023-02-15T21:48:02.839Z,17.47
2023-02-15T21:50:48.125Z,16.90
2023-02-15T21:53:24.592Z,16.97
2023-02-15T21:55:55.038Z,17.80
2023-02-15T21:58:26.165Z,18.40
2023-02-15T22:00:58.914Z,18.77
2023-02-15T22:03:31.921Z,18.07
2023-02-15T22:05:58.813Z,18.93
2023-02-15T22:08:25.637Z,17.60
2023-02-15T22:10:54.610Z,17.90
2023-02-15T22:13:32.477Z,19.63
2023-02-15T22:15:59.632Z,18.97
2023-02-15T22:18:33.212Z,18.40
2023-02-15T22:21:02.185Z,18.53
2023-02-15T22:23:29.224Z,18.33
2023-02-15T22:26:05.305Z,19.03
2023-02-15T22:28:34.507Z,17.50
2023-02-15T22:31:02.887Z,18.47
2023-02-15T22:33:33.215Z,18.47
2023-02-15T22:36:00.756Z,18.63
2023-02-15T22:38:27.580Z,17.13
2023-02-15T22:40:57.511Z,19.07
2023-02-15T22:43:43.652Z,18.77
2023-02-15T22:46:16.954Z,18.67
2023-02-15T22:48:45.446Z,18.00
2023-02-15T22:51:17.811Z,17.57
2023-02-15T22:53:44.689Z,19.20
2023-02-15T22:56:22.365Z,19.67
2023-02-15T22:58:50.476Z,19.03
2023-02-15T23:01:31.268Z,18.57
2023-02-15T23:03:58.163Z,18.23
2023-02-15T23:06:25.321Z,17.80
2023-02-15T23:08:52.184Z,16.83
2023-02-15T23:11:19.332Z,17.77
2023-02-15T23:13:48.788Z,17.27
2023-02-15T23:16:17.037Z,18.47
2023-02-15T23:18:45.777Z,17.73
2023-02-15T23:21:15.497Z,18.30
2023-02-15T23:23:52.034Z,16.13
2023-02-15T23:26:27.730Z,16.67
2023-02-15T23:28:56.650Z,18.63
2023-02-15T23:31:29.278Z,18.27
2023-02-15T23:33:56.601Z,17.00
2023-02-15T23:36:35.463Z,17.93
2023-02-15T23:39:31.300Z,16.43
2023-02-15T23:42:00.679Z,17.97
2023-02-15T23:44:28.109Z,17.27
2023-02-15T23:46:56.579Z,17.93
2023-02-15T23:49:23.638Z,17.33
2023-02-15T23:51:55.782Z,17.73
2023-02-15T23:54:25.505Z,17.10
2023-02-15T23:57:01.494Z,18.73
2023-02-15T23:59:31.676Z,18.90
